Salona — J8B4719 — position and weather

sailwx.info

Track history (hours):
 
Tides and Currents Weather Stations Pressure Air Temp Water Temp Dewpoint Dewpoint Depression Visibility Wind Speed Wind Dir Waves Ship Positions

Salona

Last reported at 2014-Oct-16 13:17 UTC. Time now 2014-Nov-01 08:16 UTC.
Position N 44°22' E 013°54'.
Warning: this ship's position is 15 days out of date.

Length 70 m; draft 2.7 m.

Type: Cargo ship. MMSI: 376099000.

Date/timePositionNaut miles runAvg speedWind from/ knotsBaromVisibWave heightAir tempDewpointWater temp
2014-Oct-16 13:17N 44°22' E 013°54'  
2014-Oct-10 18:33N 37°51' E 023°15'8 8.2
2014-Oct-10 17:33N 37°50' E 023°26'7 7.1
2014-Oct-10 16:33N 37°52' E 023°34'6 5.9
2014-Oct-10 15:33N 37°57' E 023°33'5 4.6
2014-Oct-10 14:33N 38°02' E 023°32'0 0.0
2014-Oct-10 13:33N 38°02' E 023°32'0 0.0
2014-Oct-10 12:33N 38°02' E 023°32'0 0.0
2014-Oct-10 11:30N 38°02' E 023°32'0 0.0
2014-Oct-10 10:30N 38°02' E 023°32'0 0.0
2014-Oct-10 09:30N 38°02' E 023°32'0 0.0
2014-Oct-10 08:27N 38°02' E 023°32'0 0.0
2014-Oct-10 07:30N 38°02' E 023°32'0 0.0
2014-Oct-10 06:32N 38°02' E 023°32'0 0.0
2014-Oct-10 05:32N 38°02' E 023°32'0 0.0
2014-Oct-10 04:26N 38°02' E 023°32'0 0.0
2014-Oct-10 03:32N 38°02' E 023°32'0 0.0
2014-Oct-10 02:32N 38°02' E 023°32'0 0.0
2014-Oct-10 01:29N 38°02' E 023°32'0 0.0
2014-Oct-10 00:32N 38°02' E 023°32'0 0.0
2014-Oct-09 23:32N 38°02' E 023°32'0 0.0
2014-Oct-09 22:29N 38°02' E 023°32'0 0.0
2014-Oct-09 21:32N 38°02' E 023°32'0 0.0
2014-Oct-09 20:32N 38°02' E 023°32'0 0.0
2014-Oct-09 19:32N 38°02' E 023°32'0 0.0
2014-Oct-09 18:32N 38°02' E 023°32'0 0.0
2014-Oct-09 17:32N 38°02' E 023°32'0 0.0
2014-Oct-09 16:32N 38°02' E 023°32'0 0.0
2014-Oct-09 15:32N 38°02' E 023°32'0 0.0
2014-Oct-09 14:32N 38°02' E 023°32'0 0.0
2014-Oct-09 13:32N 38°02' E 023°32'0 0.0
2014-Oct-09 12:32N 38°02' E 023°32'0 0.0
2014-Oct-09 11:32N 38°02' E 023°32'0 0.0
2014-Oct-09 10:32N 38°02' E 023°32'0 0.0
2014-Oct-09 09:32N 38°02' E 023°32'0 0.0
2014-Oct-09 08:29N 38°02' E 023°32'0 0.0
2014-Oct-09 07:32N 38°02' E 023°32'0 0.0
2014-Oct-09 06:32N 38°02' E 023°32'0 0.1
2014-Oct-09 05:34N 38°02' E 023°32'6 5.5
2014-Oct-09 04:33N 37°57' E 023°35'6 5.7
2014-Oct-09 03:33N 37°51' E 023°36'0 0.2
2014-Oct-09 02:33N 37°51' E 023°36'1 0.6
2014-Oct-09 01:33N 37°52' E 023°36'1 0.6
2014-Oct-09 00:33N 37°52' E 023°35'1 0.6
2014-Oct-08 23:33N 37°53' E 023°35'0 0.5
2014-Oct-08 22:34N 37°53' E 023°34'6 5.7
2014-Oct-08 21:33N 37°49' E 023°40'7 6.9
2014-Oct-08 20:29N 37°43' E 023°44'  
Track history (hours):
 
Tides and Currents Weather Stations Pressure Air Temp Water Temp Dewpoint Dewpoint Depression Visibility Wind Speed Wind Dir Waves Ship Positions

Salona

Last reported at 2014-Oct-16 13:17 UTC. Time now 2014-Nov-01 08:16 UTC.
Position N 44°22' E 013°54'.
Warning: this ship's position is 15 days out of date.

Length 70 m; draft 2.7 m.

Type: Cargo ship. MMSI: 376099000.

Date/timePositionNaut miles runAvg speedWind from/ knotsBaromVisibWave heightAir tempDewpointWater temp
2014-Oct-16 13:17N 44°22' E 013°54'  
2014-Oct-10 18:33N 37°51' E 023°15'8 8.2
2014-Oct-10 17:33N 37°50' E 023°26'7 7.1
2014-Oct-10 16:33N 37°52' E 023°34'6 5.9
2014-Oct-10 15:33N 37°57' E 023°33'5 4.6
2014-Oct-10 14:33N 38°02' E 023°32'0 0.0
2014-Oct-10 13:33N 38°02' E 023°32'0 0.0
2014-Oct-10 12:33N 38°02' E 023°32'0 0.0
2014-Oct-10 11:30N 38°02' E 023°32'0 0.0
2014-Oct-10 10:30N 38°02' E 023°32'0 0.0
2014-Oct-10 09:30N 38°02' E 023°32'0 0.0
2014-Oct-10 08:27N 38°02' E 023°32'0 0.0
2014-Oct-10 07:30N 38°02' E 023°32'0 0.0
2014-Oct-10 06:32N 38°02' E 023°32'0 0.0
2014-Oct-10 05:32N 38°02' E 023°32'0 0.0
2014-Oct-10 04:26N 38°02' E 023°32'0 0.0
2014-Oct-10 03:32N 38°02' E 023°32'0 0.0
2014-Oct-10 02:32N 38°02' E 023°32'0 0.0
2014-Oct-10 01:29N 38°02' E 023°32'0 0.0
2014-Oct-10 00:32N 38°02' E 023°32'0 0.0
2014-Oct-09 23:32N 38°02' E 023°32'0 0.0
2014-Oct-09 22:29N 38°02' E 023°32'0 0.0
2014-Oct-09 21:32N 38°02' E 023°32'0 0.0
2014-Oct-09 20:32N 38°02' E 023°32'0 0.0
2014-Oct-09 19:32N 38°02' E 023°32'0 0.0
2014-Oct-09 18:32N 38°02' E 023°32'0 0.0
2014-Oct-09 17:32N 38°02' E 023°32'0 0.0
2014-Oct-09 16:32N 38°02' E 023°32'0 0.0
2014-Oct-09 15:32N 38°02' E 023°32'0 0.0
2014-Oct-09 14:32N 38°02' E 023°32'0 0.0
2014-Oct-09 13:32N 38°02' E 023°32'0 0.0
2014-Oct-09 12:32N 38°02' E 023°32'0 0.0
2014-Oct-09 11:32N 38°02' E 023°32'0 0.0
2014-Oct-09 10:32N 38°02' E 023°32'0 0.0
2014-Oct-09 09:32N 38°02' E 023°32'0 0.0
2014-Oct-09 08:29N 38°02' E 023°32'0 0.0
2014-Oct-09 07:32N 38°02' E 023°32'0 0.0
2014-Oct-09 06:32N 38°02' E 023°32'0 0.1
2014-Oct-09 05:34N 38°02' E 023°32'6 5.5
2014-Oct-09 04:33N 37°57' E 023°35'6 5.7
2014-Oct-09 03:33N 37°51' E 023°36'0 0.2
2014-Oct-09 02:33N 37°51' E 023°36'1 0.6
2014-Oct-09 01:33N 37°52' E 023°36'1 0.6
2014-Oct-09 00:33N 37°52' E 023°35'1 0.6
2014-Oct-08 23:33N 37°53' E 023°35'0 0.5
2014-Oct-08 22:34N 37°53' E 023°34'6 5.7
2014-Oct-08 21:33N 37°49' E 023°40'7 6.9
2014-Oct-08 20:29N 37°43' E 023°44'  

Dump ship's entire track history